Time;durP1;ratioP1;P1;durP2;ratioP2;P2;SDS_P1;SDS_P2;PMS_P1;PMS_P2;Temp;Humidity;BMP_temperature;BMP_pressure;BME280_temperature;BME280_humidity;BME280_pressure;Samples;Min_cycle;Max_cycle;Signal;HPM_P1;HPM_P2
2021/12/13 00:00:14;;;;;;;14.73;12.10;;;;;;;5.32;78.63;99645.59;4144463;28;20353;-48
2021/12/13 00:02:23;;;;;;;14.38;12.98;;;;;;;5.34;78.96;99638.97;4174917;28;20215;-49
2021/12/13 00:04:32;;;;;;;12.25;11.18;;;;;;;5.36;78.82;99630.63;4173746;28;20224;-49
2021/12/13 00:06:39;;;;;;;13.68;12.40;;;;;;;5.43;78.26;99639.69;4146304;28;20201;-49
2021/12/13 00:08:43;;;;;;;15.60;14.23;;;;;;;5.44;78.88;99638.66;4142884;28;20602;-49
2021/12/13 00:10:51;;;;;;;12.80;11.77;;;;;;;5.32;78.64;99640.16;4145078;28;20643;-49
2021/12/13 00:13:02;;;;;;;15.35;13.23;;;;;;;5.33;78.52;99641.84;4176682;28;20246;-49
2021/12/13 00:15:09;;;;;;;13.80;12.43;;;;;;;5.36;78.84;99636.06;4143852;28;20218;-49
2021/12/13 00:17:16;;;;;;;14.40;13.05;;;;;;;5.27;79.43;99629.03;4144509;28;20216;-49
2021/12/13 00:19:22;;;;;;;13.98;12.65;;;;;;;5.36;78.89;99633.34;4173868;28;20255;-49
2021/12/13 00:21:35;;;;;;;17.38;13.32;;;;;;;5.37;78.80;99635.03;4172458;28;20223;-48
2021/12/13 00:23:42;;;;;;;13.80;12.27;;;;;;;5.37;79.04;99635.03;4175492;28;20267;-48
2021/12/13 00:25:46;;;;;;;15.40;13.98;;;;;;;5.32;78.60;99645.59;4174176;28;20282;-49
2021/12/13 00:27:54;;;;;;;17.08;13.93;;;;;;;5.35;79.10;99639.81;4143468;28;20256;-48
2021/12/13 00:29:59;;;;;;;17.75;15.18;;;;;;;5.36;78.94;99638.78;4159128;28;20363;-49
2021/12/13 00:32:13;;;;;;;16.23;14.48;;;;;;;5.36;78.91;99636.06;4170870;28;20242;-49
2021/12/13 00:34:27;;;;;;;17.25;15.50;;;;;;;5.27;79.63;99638.03;4154740;28;20718;-49
2021/12/13 00:36:34;;;;;;;16.38;14.68;;;;;;;5.22;79.34;99639.63;4160025;28;20212;-49
2021/12/13 00:38:44;;;;;;;18.88;14.70;;;;;;;5.27;79.38;99642.59;4102658;28;20246;-50
2021/12/13 00:40:49;;;;;;;20.83;16.55;;;;;;;5.35;79.03;99637.91;4124669;28;20256;-50
2021/12/13 00:42:51;;;;;;;18.48;15.27;;;;;;;5.34;79.12;99638.09;4139788;28;20685;-52
2021/12/13 00:44:57;;;;;;;15.20;13.73;;;;;;;5.32;79.39;99634.75;4157967;28;20236;-50
2021/12/13 00:47:08;;;;;;;15.43;13.90;;;;;;;5.32;79.50;99635.59;4124273;28;20288;-50
2021/12/13 00:49:14;;;;;;;17.58;13.30;;;;;;;5.34;78.97;99638.09;4125886;28;20206;-48
2021/12/13 00:51:21;;;;;;;16.40;14.73;;;;;;;5.38;79.46;99634.84;4128116;28;20206;-49
2021/12/13 00:53:23;;;;;;;14.13;12.85;;;;;;;5.33;79.00;99636.41;4126412;28;20205;-48
2021/12/13 00:55:29;;;;;;;16.55;15.05;;;;;;;5.31;79.32;99638.50;4128631;28;20273;-49
2021/12/13 00:57:31;;;;;;;14.18;12.95;;;;;;;5.41;78.77;99628.16;4126688;28;20233;-50
2021/12/13 00:59:40;;;;;;;14.35;12.50;;;;;;;5.37;79.18;99630.41;4141166;28;20679;-48
2021/12/13 01:01:42;;;;;;;13.77;12.52;;;;;;;5.31;79.23;99630.34;4127479;28;20213;-48
2021/12/13 01:03:48;;;;;;;14.32;12.90;;;;;;;5.36;79.40;99638.78;4158656;28;20364;-49
2021/12/13 01:05:56;;;;;;;13.98;12.55;;;;;;;5.37;79.58;99637.75;4128474;28;20277;-49
2021/12/13 01:08:04;;;;;;;12.77;11.48;;;;;;;5.40;78.88;99638.19;4157885;28;20274;-48
2021/12/13 01:10:24;;;;;;;13.70;12.43;;;;;;;5.40;78.90;99649.06;4140427;28;20583;-49
2021/12/13 01:12:27;;;;;;;12.48;11.25;;;;;;;5.32;79.32;99646.44;4159454;28;20239;-49
2021/12/13 01:14:47;;;;;;;14.20;12.82;;;;;;;5.32;78.98;99651.03;4124492;28;20260;-50
2021/12/13 01:17:05;;;;;;;13.80;12.55;;;;;;;5.44;79.07;99655.75;4154159;28;20699;-49
2021/12/13 01:19:46;;;;;;;12.82;11.48;;;;;;;5.35;79.09;99656.09;4157724;28;20216;-49
2021/12/13 01:22:16;;;;;;;12.05;10.85;;;;;;;5.38;79.02;99666.56;4140769;28;20221;-49
2021/12/13 01:24:41;;;;;;;13.68;12.35;;;;;;;5.45;78.66;99664.75;4144387;28;20240;-49
2021/12/13 01:26:47;;;;;;;14.85;13.35;;;;;;;5.43;79.13;99666.84;4122836;28;20198;-49
2021/12/13 01:28:53;;;;;;;13.63;12.45;;;;;;;5.38;79.44;99661.13;4122806;28;20213;-49
2021/12/13 01:31:07;;;;;;;14.77;13.38;;;;;;;5.37;78.83;99659.44;4123785;28;20296;-46
2021/12/13 01:33:12;;;;;;;15.57;14.10;;;;;;;5.38;79.18;99661.13;4156795;28;20213;-49
2021/12/13 01:35:23;;;;;;;14.25;12.57;;;;;;;5.34;79.26;99665.25;4142744;28;20210;-49
2021/12/13 01:37:29;;;;;;;14.10;12.77;;;;;;;5.36;79.03;99668.63;4126575;28;20245;-49
2021/12/13 01:39:32;;;;;;;15.05;13.75;;;;;;;5.38;79.05;99671.97;4140770;28;20588;-50
2021/12/13 01:41:51;;;;;;;14.77;13.45;;;;;;;5.34;79.20;99663.38;4142828;28;20749;-49
2021/12/13 01:44:15;;;;;;;14.45;12.85;;;;;;;5.32;79.80;99678.16;4140344;28;20605;-48
2021/12/13 01:46:21;;;;;;;14.40;13.02;;;;;;;5.34;79.53;99670.66;4135072;28;20217;-49
2021/12/13 01:48:31;;;;;;;14.80;13.35;;;;;;;5.33;79.72;99688.84;4125370;28;20221;-49
2021/12/13 01:50:47;;;;;;;14.55;12.65;;;;;;;5.39;79.52;99682.66;4126650;28;20202;-49
2021/12/13 01:52:51;;;;;;;14.68;13.40;;;;;;;5.40;79.55;99691.63;4128637;28;20782;-50
2021/12/13 01:54:56;;;;;;;13.88;12.57;;;;;;;5.40;79.32;99683.47;4140018;28;20284;-49
2021/12/13 01:58:08;;;;;;;14.18;12.88;;;;;;;5.38;79.22;99696.41;4125318;28;20246;-51
2021/12/13 01:59:44;;;;;;;12.30;11.00;;;;;;;5.37;79.40;99681.97;4121454;28;20206;-49
2021/12/13 02:01:46;;;;;;;13.30;12.05;;;;;;;5.41;79.05;99698.72;4138689;28;20729;-49
2021/12/13 02:03:57;;;;;;;18.83;14.60;;;;;;;5.48;78.97;99688.81;4151540;28;20228;-49
2021/12/13 02:05:58;;;;;;;12.93;11.65;;;;;;;5.41;79.40;99696.03;4139001;28;20537;-49
2021/12/13 02:08:03;;;;;;;13.40;12.05;;;;;;;5.34;79.25;99695.09;4123945;28;20202;-49
2021/12/13 02:10:09;;;;;;;13.43;12.23;;;;;;;5.42;78.78;99695.00;4157796;28;20671;-49
2021/12/13 02:12:17;;;;;;;13.27;12.00;;;;;;;5.34;79.00;99686.94;4126128;28;20572;-49
2021/12/13 02:14:24;;;;;;;13.43;12.23;;;;;;;5.36;79.34;99687.63;4139543;28;20259;-49
2021/12/13 02:18:54;;;;;;;12.27;11.18;;;;;;;5.35;79.32;99689.47;4126883;28;20198;-49
2021/12/13 02:21:18;;;;;;;15.18;13.20;;;;;;;5.43;79.02;99680.41;4127332;28;20684;-49
2021/12/13 02:23:20;;;;;;;13.13;12.02;;;;;;;5.36;79.54;99679.47;4125351;28;20687;-50
2021/12/13 02:25:37;;;;;;;14.15;12.75;;;;;;;5.32;79.12;99678.16;4138693;28;20244;-50
2021/12/13 02:27:43;;;;;;;12.18;10.93;;;;;;;5.35;79.15;99689.47;4159498;28;20233;-49
2021/12/13 02:29:45;;;;;;;14.65;13.15;;;;;;;5.43;79.22;99683.13;4129218;28;20206;-50
2021/12/13 02:31:47;;;;;;;16.63;12.77;;;;;;;5.39;78.82;99685.38;4129702;28;20260;-49
2021/12/13 02:34:01;;;;;;;12.77;11.57;;;;;;;5.42;78.82;99676.00;4124231;28;20237;-49
2021/12/13 02:36:27;;;;;;;13.00;11.90;;;;;;;5.38;78.96;99690.97;4111667;28;20254;-49
2021/12/13 02:38:29;;;;;;;12.63;11.45;;;;;;;5.32;79.00;99687.16;4129106;28;20579;-49
2021/12/13 02:40:31;;;;;;;13.38;12.07;;;;;;;5.35;79.29;99684.06;4124964;28;20261;-49
2021/12/13 02:42:34;;;;;;;12.35;11.30;;;;;;;5.29;79.46;99684.81;4126766;28;20306;-49
2021/12/13 02:44:48;;;;;;;13.50;12.40;;;;;;;5.31;79.17;99688.19;4160447;28;20241;-48
2021/12/13 02:46:56;;;;;;;18.98;12.13;;;;;;;5.31;79.02;99682.75;4142055;28;20304;-48
2021/12/13 02:49:02;;;;;;;13.68;12.38;;;;;;;5.38;78.71;99680.13;4145935;28;20213;-48
2021/12/13 02:51:03;;;;;;;12.95;11.18;;;;;;;5.28;78.82;99677.69;4158950;28;20295;-48
2021/12/13 02:53:06;;;;;;;13.10;11.90;;;;;;;5.32;79.44;99678.16;4160274;28;20617;-48
2021/12/13 02:55:13;;;;;;;13.35;11.88;;;;;;;5.23;79.30;99679.31;4129702;28;20229;-48
2021/12/13 02:57:32;;;;;;;13.30;12.00;;;;;;;5.42;78.83;99667.88;4146458;28;20232;-47
2021/12/13 02:59:37;;;;;;;14.35;12.18;;;;;;;5.32;78.70;99667.31;4126883;28;20237;-48
2021/12/13 03:01:38;;;;;;;11.95;10.82;;;;;;;5.30;78.99;99663.94;4125323;28;20764;-47
2021/12/13 03:03:51;;;;;;;12.68;11.57;;;;;;;5.38;78.89;99661.97;4161033;28;20362;-48
2021/12/13 03:05:55;;;;;;;14.40;13.05;;;;;;;5.25;79.10;99667.22;4127725;28;20202;-48
2021/12/13 03:08:05;;;;;;;11.43;10.43;;;;;;;5.26;78.68;99668.06;4128113;28;20973;-49
2021/12/13 03:10:12;;;;;;;13.57;11.18;;;;;;;5.23;79.28;99673.88;4111415;28;20202;-48
2021/12/13 03:12:16;;;;;;;11.98;10.93;;;;;;;5.12;79.31;99677.03;4127986;28;20564;-48
2021/12/13 03:14:24;;;;;;;14.73;13.23;;;;;;;5.13;79.31;99673.31;4129459;28;20756;-48
2021/12/13 03:16:30;;;;;;;13.68;12.38;;;;;;;5.12;79.74;99671.63;4158832;28;20234;-47
2021/12/13 03:18:56;;;;;;;12.90;11.77;;;;;;;5.07;79.14;99679.47;4162115;28;20742;-51
2021/12/13 03:21:20;;;;;;;15.55;10.98;;;;;;;5.04;79.79;99669.00;4143549;28;20615;-47
2021/12/13 03:23:48;;;;;;;13.27;12.18;;;;;;;5.08;79.46;99670.31;4141408;28;20198;-48
2021/12/13 03:25:59;;;;;;;11.40;10.35;;;;;;;5.19;79.26;99669.84;4141594;28;20682;-47
2021/12/13 03:28:06;;;;;;;11.85;10.65;;;;;;;5.11;79.13;99672.66;4144516;28;20660;-51
2021/12/13 03:30:28;;;;;;;13.35;12.02;;;;;;;5.16;79.07;99678.38;4159115;28;20223;-48
2021/12/13 03:32:39;;;;;;;14.95;13.70;;;;;;;5.23;79.13;99669.28;4141281;28;20212;-48
2021/12/13 03:34:46;;;;;;;13.35;11.82;;;;;;;5.14;79.07;99674.97;4128752;28;20236;-47
2021/12/13 03:37:01;;;;;;;13.43;12.30;;;;;;;5.08;79.47;99681.16;4157685;28;20256;-48
2021/12/13 03:39:06;;;;;;;13.85;12.32;;;;;;;5.07;79.22;99679.47;4160376;28;20212;-47
2021/12/13 03:41:12;;;;;;;12.07;10.90;;;;;;;5.06;79.34;99669.66;4126396;28;20244;-48
2021/12/13 03:43:18;;;;;;;14.43;12.32;;;;;;;5.08;79.30;99673.00;4129389;28;20230;-50
2021/12/13 03:45:44;;;;;;;13.20;11.93;;;;;;;5.16;79.41;99676.47;4149629;28;20210;-50
2021/12/13 03:47:50;;;;;;;14.93;13.15;;;;;;;5.13;79.24;99673.31;4140375;28;20749;-47
2021/12/13 03:49:57;;;;;;;14.20;12.80;;;;;;;5.11;79.63;99669.94;4129719;28;20206;-46
2021/12/13 03:51:59;;;;;;;15.77;14.30;;;;;;;5.03;79.64;99662.72;4155527;28;20236;-50
2021/12/13 03:54:04;;;;;;;14.57;13.27;;;;;;;5.10;79.76;99669.09;4107323;28;20306;-48
2021/12/13 03:56:09;;;;;;;15.95;14.38;;;;;;;5.16;79.27;99668.34;4126138;28;20248;-49
2021/12/13 03:58:14;;;;;;;14.70;13.05;;;;;;;5.14;79.42;99666.84;4158970;28;20711;-48
2021/12/13 04:00:19;;;;;;;13.52;12.32;;;;;;;5.09;79.77;99666.59;4142026;28;20927;-48
2021/12/13 04:02:31;;;;;;;13.05;11.95;;;;;;;5.07;79.92;99663.19;4128107;28;20253;-48
2021/12/13 04:04:45;;;;;;;15.10;13.70;;;;;;;5.16;79.42;99662.91;4141792;28;20287;-46
2021/12/13 04:07:01;;;;;;;13.65;12.43;;;;;;;5.02;79.90;99664.78;4156710;28;20212;-50
2021/12/13 04:09:03;;;;;;;13.23;12.07;;;;;;;5.21;79.10;99670.50;4160290;28;20231;-48
2021/12/13 04:11:08;;;;;;;14.05;12.77;;;;;;;5.07;79.94;99665.91;4126736;28;20293;-49
2021/12/13 04:13:14;;;;;;;14.30;13.00;;;;;;;5.03;79.96;99669.19;4125820;28;20683;-49
2021/12/13 04:15:16;;;;;;;12.85;11.77;;;;;;;5.01;79.66;99663.94;4140565;28;20287;-49
2021/12/13 04:17:35;;;;;;;13.30;12.13;;;;;;;5.03;79.50;99653.78;4141668;28;20213;-49
2021/12/13 04:19:56;;;;;;;13.25;12.15;;;;;;;5.03;79.53;99657.31;4145090;28;20291;-49
2021/12/13 04:22:01;;;;;;;11.35;10.25;;;;;;;5.01;80.16;99658.50;4140865;28;20213;-49
2021/12/13 04:24:06;;;;;;;13.32;12.23;;;;;;;5.23;79.50;99652.16;4127613;28;20265;-49
2021/12/13 04:26:10;;;;;;;13.40;12.30;;;;;;;5.07;79.24;99650.50;4143564;28;20213;-49
2021/12/13 04:28:16;;;;;;;13.38;11.65;;;;;;;5.01;79.66;99663.13;4139701;28;20736;-49
2021/12/13 04:30:32;;;;;;;12.27;11.07;;;;;;;5.07;79.81;99663.19;4154370;28;20212;-48
2021/12/13 04:32:37;;;;;;;13.85;12.48;;;;;;;5.12;79.81;99668.09;4125520;28;20232;-49
2021/12/13 04:34:41;;;;;;;13.18;12.02;;;;;;;5.01;80.07;99669.38;4124999;28;20225;-49
2021/12/13 04:36:49;;;;;;;14.38;13.05;;;;;;;5.13;79.89;99667.88;4127146;28;20213;-48
2021/12/13 04:38:58;;;;;;;12.32;11.32;;;;;;;5.16;79.54;99671.06;4124932;28;20219;-49
2021/12/13 04:40:59;;;;;;;11.23;10.32;;;;;;;5.11;79.58;99664.50;4143513;28;20206;-49
2021/12/13 04:43:07;;;;;;;12.48;11.38;;;;;;;5.11;79.57;99669.94;4128698;28;20234;-50
2021/12/13 04:45:21;;;;;;;12.45;11.35;;;;;;;5.12;79.76;99666.19;4129678;28;20226;-49
2021/12/13 04:47:29;;;;;;;12.13;11.10;;;;;;;5.04;80.33;99677.16;4143892;28;20201;-49
2021/12/13 04:49:31;;;;;;;15.45;13.95;;;;;;;5.03;79.99;99675.47;4141220;28;20755;-50
2021/12/13 04:51:52;;;;;;;14.18;12.98;;;;;;;5.09;79.94;99669.28;4139179;28;20202;-49
2021/12/13 04:53:58;;;;;;;14.93;13.60;;;;;;;5.02;80.16;99679.22;4125961;28;20237;-50
2021/12/13 04:56:04;;;;;;;16.05;14.55;;;;;;;4.98;80.18;99677.88;4124142;28;20210;-50
2021/12/13 04:58:08;;;;;;;14.70;13.23;;;;;;;5.05;79.61;99681.53;4141681;28;20307;-49
2021/12/13 05:00:16;;;;;;;13.98;12.68;;;;;;;4.96;80.22;99677.25;4125601;28;20245;-50
2021/12/13 05:02:18;;;;;;;15.68;14.18;;;;;;;4.87;80.57;99678.34;4128445;28;20217;-49
2021/12/13 05:04:22;;;;;;;14.63;12.75;;;;;;;4.89;79.96;99684.44;4126005;28;20230;-48
2021/12/13 05:06:27;;;;;;;16.27;14.70;;;;;;;4.91;80.30;99676.94;4126499;28;20853;-49
2021/12/13 05:08:29;;;;;;;16.60;15.02;;;;;;;4.91;80.08;99676.94;4129201;28;20213;-49
2021/12/13 05:10:31;;;;;;;18.50;12.77;;;;;;;5.00;80.22;99678.53;4156405;28;20209;-48
2021/12/13 05:12:33;;;;;;;15.20;13.60;;;;;;;4.95;80.08;99681.00;4125647;28;20206;-49
2021/12/13 05:14:45;;;;;;;15.35;13.85;;;;;;;5.00;79.96;99686.66;4129360;28;20225;-50
2021/12/13 05:16:51;;;;;;;15.70;13.70;;;;;;;4.89;80.35;99681.72;4140607;28;20808;-49
2021/12/13 05:18:54;;;;;;;17.33;14.35;;;;;;;4.84;80.60;99688.72;4137746;28;20272;-49
2021/12/13 05:21:00;;;;;;;19.60;14.57;;;;;;;4.86;80.36;99687.50;4140569;28;20240;-49
2021/12/13 05:23:17;;;;;;;27.55;15.68;;;;;;;4.75;80.55;99685.25;4139574;28;20205;-49
2021/12/13 05:25:44;;;;;;;16.75;15.20;;;;;;;4.79;80.86;99691.16;4121986;28;20245;-49
2021/12/13 05:27:46;;;;;;;16.75;15.02;;;;;;;4.79;80.93;99694.69;4126305;28;20206;-49
2021/12/13 05:29:49;;;;;;;16.38;14.60;;;;;;;4.82;80.39;99698.91;4140681;28;20218;-48
2021/12/13 05:32:09;;;;;;;18.40;15.23;;;;;;;4.83;80.36;99709.56;4137643;28;20234;-49
2021/12/13 05:34:11;;;;;;;16.25;14.45;;;;;;;4.86;80.63;99711.91;4122569;28;20268;-50
2021/12/13 05:36:29;;;;;;;16.08;14.40;;;;;;;4.88;80.79;99706.31;4123708;28;20218;-49
2021/12/13 05:38:36;;;;;;;15.95;14.25;;;;;;;4.98;80.27;99707.72;4140133;28;20948;-51
2021/12/13 05:40:44;;;;;;;17.52;15.18;;;;;;;4.98;80.38;99707.72;4137397;28;20206;-50
2021/12/13 05:42:55;;;;;;;14.82;13.48;;;;;;;4.99;80.11;99706.69;4155649;28;20763;-50
2021/12/13 05:44:57;;;;;;;15.93;14.32;;;;;;;4.92;80.11;99708.47;4126127;28;20273;-49
2021/12/13 05:47:04;;;;;;;17.38;15.63;;;;;;;4.97;80.11;99714.19;4123170;28;20201;-49
2021/12/13 05:49:26;;;;;;;17.75;15.57;;;;;;;4.97;80.08;99700.63;4140312;28;20237;-49
2021/12/13 05:51:32;;;;;;;17.70;15.27;;;;;;;4.88;80.63;99711.72;4126612;28;20199;-49
2021/12/13 05:53:45;;;;;;;15.70;14.23;;;;;;;4.83;80.84;99715.00;4141434;28;20678;-48
2021/12/13 05:56:12;;;;;;;17.45;14.75;;;;;;;4.93;80.69;99721.00;4142799;28;20204;-48
2021/12/13 05:58:31;;;;;;;15.23;13.77;;;;;;;4.94;80.32;99711.81;4126700;28;20241;-49
2021/12/13 06:00:35;;;;;;;17.58;12.80;;;;;;;4.91;80.54;99717.63;4157027;28;20235;-49
2021/12/13 06:02:58;;;;;;;13.77;12.38;;;;;;;4.91;80.32;99712.19;4138995;28;20662;-50
2021/12/13 06:05:15;;;;;;;15.63;13.93;;;;;;;4.88;80.43;99712.56;4147827;28;20286;-50
2021/12/13 06:07:22;;;;;;;16.60;14.68;;;;;;;4.86;80.83;99713.78;4144106;28;20205;-49
2021/12/13 06:09:40;;;;;;;15.50;14.05;;;;;;;4.90;80.62;99721.38;4145094;28;20204;-49
2021/12/13 06:11:46;;;;;;;15.25;13.80;;;;;;;4.90;80.97;99732.22;4129352;28;20205;-48
2021/12/13 06:13:55;;;;;;;14.82;13.45;;;;;;;4.92;80.29;99730.16;4143528;28;20746;-49
2021/12/13 06:15:57;;;;;;;12.48;11.40;;;;;;;5.02;80.13;99725.31;4129374;28;20206;-48
2021/12/13 06:18:11;;;;;;;11.70;10.65;;;;;;;5.13;79.94;99727.56;4129289;28;20210;-49
2021/12/13 06:20:23;;;;;;;13.48;12.20;;;;;;;5.03;79.70;99727.00;4125098;28;20588;-48
2021/12/13 06:22:28;;;;;;;13.77;12.43;;;;;;;4.96;79.83;99725.19;4129213;28;20245;-49
2021/12/13 06:25:00;;;;;;;13.02;11.82;;;;;;;5.03;80.23;99727.00;4127735;28;20261;-48
2021/12/13 06:27:27;;;;;;;10.82;9.93;;;;;;;5.12;79.84;99742.16;4129728;28;20241;-49
2021/12/13 06:29:44;;;;;;;10.48;9.57;;;;;;;5.16;78.92;99738.06;4131105;28;20638;-50
2021/12/13 06:31:46;;;;;;;9.18;8.27;;;;;;;5.00;79.79;99740.91;4127373;28;20204;-49
2021/12/13 06:34:00;;;;;;;10.60;9.60;;;;;;;5.02;79.89;99736.16;4126863;28;20260;-49
2021/12/13 06:36:02;;;;;;;10.50;9.65;;;;;;;5.13;79.57;99741.13;4129888;28;20758;-49
2021/12/13 06:38:19;;;;;;;10.95;9.38;;;;;;;5.00;79.60;99750.94;4143721;28;20595;-49
2021/12/13 06:40:31;;;;;;;11.20;10.30;;;;;;;5.01;79.34;99750.72;4159299;28;20204;-49
2021/12/13 06:42:32;;;;;;;9.60;8.75;;;;;;;4.97;79.81;99746.72;4158833;28;20257;-50
2021/12/13 06:44:45;;;;;;;9.88;9.07;;;;;;;5.05;79.77;99746.63;4125490;28;20234;-49
2021/12/13 06:46:54;;;;;;;9.75;8.95;;;;;;;4.96;79.92;99753.19;4128080;28;20329;-51
2021/12/13 06:49:01;;;;;;;15.40;9.55;;;;;;;4.92;79.76;99741.00;4124412;28;20739;-49
2021/12/13 06:51:03;;;;;;;10.55;9.65;;;;;;;4.92;79.50;99749.13;4140404;28;20731;-49
2021/12/13 06:53:17;;;;;;;9.98;9.07;;;;;;;4.90;79.69;99748.50;4130303;28;20249;-49
2021/12/13 06:55:19;;;;;;;9.43;8.52;;;;;;;4.97;79.81;99746.72;4127679;28;20257;-48
2021/12/13 06:57:37;;;;;;;8.82;8.05;;;;;;;5.08;79.36;99748.97;4132836;28;20206;-49
2021/12/13 06:59:52;;;;;;;8.45;7.32;;;;;;;4.99;79.50;99746.53;4130293;28;20225;-49
2021/12/13 07:02:12;;;;;;;7.93;7.20;;;;;;;4.97;79.42;99747.53;4156926;28;20204;-49
2021/12/13 07:04:14;;;;;;;8.48;7.20;;;;;;;4.90;80.11;99753.91;4155676;28;20312;-51
2021/12/13 07:06:19;;;;;;;7.82;7.20;;;;;;;4.92;80.21;99751.00;4132364;28;20296;-49
2021/12/13 07:08:25;;;;;;;8.93;8.13;;;;;;;5.09;79.22;99745.25;4125378;28;20258;-49
2021/12/13 07:10:39;;;;;;;7.63;7.10;;;;;;;5.01;79.54;99749.91;4106395;28;20697;-50
2021/12/13 07:12:48;;;;;;;8.02;7.32;;;;;;;4.99;79.75;99750.09;4158893;28;20293;-49
2021/12/13 07:14:51;;;;;;;8.73;7.38;;;;;;;4.95;79.51;99746.06;4122034;28;20229;-49
2021/12/13 07:16:53;;;;;;;8.50;7.70;;;;;;;4.97;79.59;99749.44;4128589;28;20756;-50
2021/12/13 07:19:02;;;;;;;8.23;7.57;;;;;;;4.98;79.51;99745.69;4142974;28;20769;-50
2021/12/13 07:21:11;;;;;;;6.47;5.97;;;;;;;5.00;79.48;99753.66;4138877;28;20205;-51
2021/12/13 07:23:13;;;;;;;8.15;7.55;;;;;;;5.06;79.64;99752.91;4125302;28;20238;-48
2021/12/13 07:25:16;;;;;;;9.20;8.38;;;;;;;5.04;79.56;99755.81;4125802;28;20642;-49
2021/12/13 07:27:30;;;;;;;8.50;7.80;;;;;;;4.97;79.69;99758.41;4124346;28;20648;-48
2021/12/13 07:29:37;;;;;;;9.30;8.38;;;;;;;4.96;79.83;99764.03;4125168;28;20209;-49
2021/12/13 07:31:42;;;;;;;8.23;7.60;;;;;;;5.07;79.28;99761.69;4125409;28;20960;-49
2021/12/13 07:33:45;;;;;;;8.07;7.47;;;;;;;5.15;79.04;99764.31;4145156;28;20229;-50
2021/12/13 07:35:49;;;;;;;9.13;8.30;;;;;;;5.02;79.82;99762.44;4159357;28;20641;-49
2021/12/13 07:37:52;;;;;;;9.82;8.65;;;;;;;4.94;79.93;99768.78;4124702;28;20238;-50
2021/12/13 07:39:53;;;;;;;10.75;9.70;;;;;;;4.95;80.17;99770.47;4125610;28;20252;-50
2021/12/13 07:42:01;;;;;;;10.18;9.35;;;;;;;4.99;79.78;99766.34;4126258;28;20248;-50
2021/12/13 07:44:03;;;;;;;9.30;8.50;;;;;;;4.99;79.48;99762.81;4143239;28;20228;-49
2021/12/13 07:46:32;;;;;;;10.50;9.60;;;;;;;4.92;80.05;99772.69;4125403;28;20253;-50
2021/12/13 07:48:40;;;;;;;9.07;8.27;;;;;;;4.99;79.43;99768.25;4122419;28;20656;-50
2021/12/13 07:50:44;;;;;;;9.30;8.40;;;;;;;5.01;79.95;99772.44;4125732;28;20578;-49
2021/12/13 07:52:53;;;;;;;8.30;7.60;;;;;;;5.02;79.87;99767.88;4162357;28;20686;-49
2021/12/13 07:54:56;;;;;;;7.90;7.30;;;;;;;5.17;78.83;99766.88;4126590;28;20226;-49
2021/12/13 07:57:00;;;;;;;8.70;8.00;;;;;;;5.09;79.09;99775.91;4126883;28;20262;-50
2021/12/13 07:59:14;;;;;;;9.43;8.63;;;;;;;5.16;79.36;99770.63;4154616;28;20212;-48
2021/12/13 08:01:23;;;;;;;11.07;7.53;;;;;;;5.18;79.39;99784.81;4156974;28;20722;-48
2021/12/13 08:03:26;;;;;;;8.00;7.28;;;;;;;5.12;79.51;99780.13;4139409;28;20219;-49
2021/12/13 08:05:38;;;;;;;12.48;6.93;;;;;;;5.14;79.45;99778.06;4123696;28;20210;-49
2021/12/13 08:07:43;;;;;;;7.68;6.93;;;;;;;5.25;78.88;99774.91;4137698;28;21241;-49
2021/12/13 08:09:55;;;;;;;7.30;6.18;;;;;;;5.31;78.77;99782.31;4129111;28;20241;-47
2021/12/13 08:12:23;;;;;;;6.80;6.20;;;;;;;5.31;78.47;99779.59;4130101;28;20202;-49
2021/12/13 08:14:36;;;;;;;6.45;5.85;;;;;;;5.37;78.07;99784.28;4136630;28;20232;-49
2021/12/13 08:16:43;;;;;;;7.18;6.57;;;;;;;5.31;78.61;99782.31;4140219;28;20233;-49
2021/12/13 08:18:44;;;;;;;5.55;5.05;;;;;;;5.26;78.99;99784.72;4127620;28;20238;-50
2021/12/13 08:20:51;;;;;;;7.18;6.57;;;;;;;5.17;78.80;99780.44;4140621;28;20256;-49
2021/12/13 08:22:55;;;;;;;6.70;6.20;;;;;;;5.28;78.85;99790.81;4126598;28;20226;-49
2021/12/13 08:25:04;;;;;;;6.38;5.85;;;;;;;5.31;78.82;99777.75;4141740;28;20597;-49
2021/12/13 08:27:13;;;;;;;6.75;6.07;;;;;;;5.21;79.42;99784.44;4156820;28;20834;-49
2021/12/13 08:29:31;;;;;;;7.90;7.30;;;;;;;5.23;79.03;99776.97;4124266;28;20233;-49
2021/12/13 08:31:35;;;;;;;7.63;6.97;;;;;;;5.21;79.13;99777.16;4127008;28;20237;-49
2021/12/13 08:33:43;;;;;;;7.70;6.90;;;;;;;5.14;79.23;99775.34;4142459;28;20303;-49
2021/12/13 08:35:56;;;;;;;6.90;6.32;;;;;;;5.14;79.31;99778.06;4150870;28;20208;-49
2021/12/13 08:37:59;;;;;;;6.68;6.18;;;;;;;5.21;79.68;99779.00;4127023;28;20205;-49
2021/12/13 08:40:01;;;;;;;7.22;6.63;;;;;;;5.28;78.99;99774.53;4122716;28;20723;-48
2021/12/13 08:42:15;;;;;;;7.78;7.18;;;;;;;5.19;78.99;99775.66;4129268;28;20238;-48
2021/12/13 08:44:26;;;;;;;6.28;5.78;;;;;;;5.24;79.17;99778.66;4157425;28;20462;-51
2021/12/13 08:47:06;;;;;;;5.88;5.38;;;;;;;5.27;79.27;99783.69;4128146;28;20202;-49
2021/12/13 08:49:17;;;;;;;6.18;5.68;;;;;;;5.43;78.50;99788.97;4125418;28;20206;-50
2021/12/13 08:51:23;;;;;;;6.43;5.90;;;;;;;5.38;78.52;99780.53;4138756;28;20204;-49
2021/12/13 08:53:35;;;;;;;7.80;7.10;;;;;;;5.41;78.46;99780.16;4160685;28;20251;-49
2021/12/13 08:55:40;;;;;;;5.85;5.45;;;;;;;5.49;77.96;99782.81;4128537;28;20557;-46
2021/12/13 08:58:02;;;;;;;6.68;6.18;;;;;;;5.49;77.82;99782.81;4157643;28;20262;-50
2021/12/13 09:00:13;;;;;;;5.82;5.35;;;;;;;5.46;77.82;99794.03;4144215;28;20604;-50
2021/12/13 09:02:16;;;;;;;6.63;6.03;;;;;;;5.48;77.93;99792.81;4128368;28;20304;-49
2021/12/13 09:04:26;;;;;;;6.20;5.60;;;;;;;5.42;78.10;99784.59;4124933;28;20233;-49
2021/12/13 09:06:45;;;;;;;5.22;4.82;;;;;;;5.45;78.19;99792.34;4125837;28;20201;-49
2021/12/13 09:09:11;;;;;;;6.65;6.05;;;;;;;5.44;78.33;99786.06;4124964;28;20202;-49
2021/12/13 09:11:37;;;;;;;6.55;6.00;;;;;;;5.39;78.21;99787.66;4127229;28;20293;-49
2021/12/13 09:14:04;;;;;;;6.63;6.13;;;;;;;5.35;78.33;99797.22;4136725;28;20221;-48
2021/12/13 09:16:28;;;;;;;6.30;5.75;;;;;;;5.38;78.16;99796.81;4157819;28;20708;-50
2021/12/13 09:18:40;;;;;;;5.35;4.95;;;;;;;5.49;78.28;99799.09;4125391;28;20233;-53
2021/12/13 09:20:47;;;;;;;7.18;6.57;;;;;;;5.50;78.19;99798.06;4127074;28;20206;-49
2021/12/13 09:23:00;;;;;;;10.18;7.13;;;;;;;5.55;77.93;99792.91;4142090;28;20209;-49
2021/12/13 09:25:28;;;;;;;6.13;5.63;;;;;;;5.63;77.51;99803.69;4128263;28;20233;-50
2021/12/13 09:27:35;;;;;;;6.40;5.90;;;;;;;5.60;77.65;99802.19;4125873;28;20221;-49
2021/12/13 09:30:03;;;;;;;5.30;4.80;;;;;;;5.60;77.91;99798.59;4142184;28;20234;-47
2021/12/13 09:32:12;;;;;;;5.95;5.55;;;;;;;5.61;77.57;99800.28;4127690;28;20297;-49
2021/12/13 09:34:19;;;;;;;5.63;5.20;;;;;;;5.66;77.64;99790.56;4155217;28;21174;-50
2021/12/13 09:36:40;;;;;;;6.22;5.72;;;;;;;5.86;77.25;99808.00;4123662;28;20249;-49
2021/12/13 09:39:06;;;;;;;5.85;5.35;;;;;;;5.82;77.29;99800.44;4140243;28;20457;-49
2021/12/13 09:41:14;;;;;;;6.00;5.50;;;;;;;5.88;77.53;99807.84;4156702;28;20748;-49
2021/12/13 09:43:56;;;;;;;5.90;5.45;;;;;;;5.83;77.00;99807.53;4124165;28;20234;-47
2021/12/13 09:45:59;;;;;;;6.75;6.07;;;;;;;5.88;77.01;99813.25;4125363;28;20591;-48
2021/12/13 09:48:47;;;;;;;6.70;6.20;;;;;;;5.90;76.63;99803.03;4141432;28;20197;-49
2021/12/13 09:50:52;;;;;;;5.32;4.93;;;;;;;5.98;76.86;99813.78;4106778;28;20223;-49
2021/12/13 09:53:06;;;;;;;5.70;5.20;;;;;;;6.01;77.04;99802.53;4126488;28;20210;-48
2021/12/13 09:55:41;;;;;;;6.65;6.05;;;;;;;6.00;76.68;99798.13;4159217;28;20224;-48
2021/12/13 09:57:57;;;;;;;6.45;5.85;;;;;;;6.07;76.68;99793.63;4146100;28;20547;-50
2021/12/13 10:02:40;;;;;;;5.90;5.38;;;;;;;6.17;76.10;99797.72;4143679;28;20205;-50
2021/12/13 10:05:13;;;;;;;5.43;5.03;;;;;;;6.09;76.31;99788.88;4142427;28;20264;-47
2021/12/13 10:07:41;;;;;;;5.47;4.97;;;;;;;6.31;75.97;99790.59;4139965;28;20639;-47
2021/12/13 10:10:06;;;;;;;6.28;5.80;;;;;;;6.15;76.28;99796.25;4143200;28;20197;-47
2021/12/13 10:12:30;;;;;;;6.20;5.80;;;;;;;6.16;76.16;99793.34;4146891;28;20201;-48
2021/12/13 10:14:54;;;;;;;7.80;7.10;;;;;;;6.17;76.28;99792.28;4144368;28;20766;-48
2021/12/13 10:17:06;;;;;;;5.45;5.05;;;;;;;6.15;76.00;99793.53;4142390;28;20209;-47